createdAt,value
2022-08-19T00:07:31.619Z,0
2022-08-19T00:17:35.500Z,0
2022-08-19T00:47:46.242Z,0
2022-08-19T01:17:57.227Z,0
2022-08-19T01:28:01.707Z,0
2022-08-19T01:38:04.561Z,0
2022-08-19T01:48:08.315Z,0
2022-08-19T01:58:11.631Z,0
2022-08-19T02:08:15.279Z,0
2022-08-19T02:18:19.191Z,0
2022-08-19T02:28:22.560Z,0
2022-08-19T02:38:25.672Z,0
2022-08-19T02:48:28.839Z,0
2022-08-19T02:58:32.342Z,0
2022-08-19T03:08:36.401Z,0
2022-08-19T03:18:40.142Z,0
2022-08-19T03:28:43.953Z,0
2022-08-19T03:38:47.325Z,0
2022-08-19T03:48:50.438Z,0
2022-08-19T03:58:53.860Z,0
2022-08-19T04:08:57.152Z,0
2022-08-19T04:19:01.184Z,0
2022-08-19T04:29:06.548Z,0
2022-08-19T04:39:08.131Z,0
2022-08-19T04:49:13.321Z,0
2022-08-19T04:59:14.319Z,0
2022-08-19T05:09:18.209Z,0
2022-08-19T05:19:21.319Z,0
2022-08-19T05:29:25.210Z,0
2022-08-19T05:39:28.337Z,0
2022-08-19T05:49:31.782Z,0
2022-08-19T05:59:35.313Z,1
2022-08-19T06:19:43.275Z,0
2022-08-19T06:29:47.252Z,0
2022-08-19T06:39:50.945Z,0
2022-08-19T06:49:54.795Z,0
2022-08-19T06:59:58.528Z,0
2022-08-19T07:10:03.809Z,0
2022-08-19T07:20:07.053Z,1
2022-08-19T07:30:11.550Z,17
2022-08-19T07:40:11.857Z,2
2022-08-19T07:50:14.907Z,2
2022-08-19T08:00:20.435Z,6
2022-08-19T08:10:21.655Z,2
2022-08-19T08:20:25.473Z,2
2022-08-19T08:30:31.103Z,2
2022-08-19T08:40:32.620Z,7
2022-08-19T08:50:36.370Z,14
2022-08-19T09:10:44.148Z,5
2022-08-19T09:20:47.177Z,27
2022-08-19T09:30:51.171Z,14
2022-08-19T09:40:54.811Z,29
2022-08-19T09:50:58.663Z,28
2022-08-19T10:01:01.826Z,7
2022-08-19T10:11:27.567Z,23
2022-08-19T10:21:08.393Z,14
2022-08-19T10:31:12.012Z,13
2022-08-19T10:41:15.137Z,25
2022-08-19T10:51:22.438Z,12
2022-08-19T11:01:22.201Z,14
2022-08-19T11:11:25.403Z,10
2022-08-19T11:21:28.958Z,17
2022-08-19T11:31:32.585Z,8
2022-08-19T11:41:36.380Z,19
2022-08-19T11:51:39.953Z,14
2022-08-19T12:01:43.941Z,22
2022-08-19T12:11:47.234Z,15
2022-08-19T12:21:50.791Z,9
2022-08-19T12:31:54.495Z,17
2022-08-19T12:41:57.814Z,2
2022-08-19T12:52:01.543Z,17
2022-08-19T13:02:04.595Z,19
2022-08-19T13:12:08.022Z,20
2022-08-19T13:22:13.296Z,25
2022-08-19T13:32:17.698Z,25
2022-08-19T13:42:18.348Z,14
2022-08-19T13:52:21.618Z,0
2022-08-19T14:02:25.593Z,8
2022-08-19T14:12:29.507Z,5
2022-08-19T14:22:32.773Z,12
2022-08-19T14:32:36.471Z,24
2022-08-19T14:42:39.874Z,10
2022-08-19T14:52:43.368Z,23
2022-08-19T15:02:46.526Z,6
2022-08-19T15:12:51.544Z,14
2022-08-19T15:22:53.258Z,1
2022-08-19T15:32:56.463Z,12
2022-08-19T15:43:00.372Z,16
2022-08-19T15:53:03.696Z,14
2022-08-19T16:03:06.974Z,8
2022-08-19T16:13:10.917Z,5
2022-08-19T16:23:14.295Z,9
2022-08-19T16:33:19.986Z,9
2022-08-19T16:43:21.563Z,16
2022-08-19T16:53:25.418Z,14
2022-08-19T17:03:35.757Z,7
2022-08-19T17:13:32.456Z,17
2022-08-19T17:23:36.789Z,8
2022-08-19T17:43:43.707Z,5
2022-08-19T17:53:45.782Z,10
2022-08-19T18:03:49.547Z,6
2022-08-19T18:13:53.529Z,15
2022-08-19T18:24:00.450Z,1
2022-08-19T18:34:00.249Z,10
2022-08-19T18:44:04.079Z,4
2022-08-19T18:54:07.296Z,10
2022-08-19T19:04:11.058Z,14
2022-08-19T19:14:27.589Z,5
2022-08-19T19:24:17.331Z,2
2022-08-19T19:34:29.394Z,4
2022-08-19T19:44:29.851Z,11
2022-08-19T19:54:27.887Z,5
2022-08-19T20:04:31.283Z,6
2022-08-19T20:14:34.749Z,5
2022-08-19T20:34:42.511Z,2
2022-08-19T20:44:46.483Z,0
2022-08-19T20:54:49.694Z,0
2022-08-19T21:04:53.485Z,3
2022-08-19T21:14:56.622Z,1
2022-08-19T21:24:59.760Z,2
2022-08-19T21:35:03.504Z,2
2022-08-19T21:45:07.200Z,0
2022-08-19T21:55:10.752Z,0
2022-08-19T22:05:13.978Z,0
2022-08-19T22:15:17.403Z,2
2022-08-19T22:25:29.088Z,2
2022-08-19T22:35:24.334Z,2
2022-08-19T22:45:28.342Z,2
2022-08-19T22:45:36.512Z,1
2022-08-19T22:55:40.239Z,5
2022-08-19T23:05:43.796Z,1
2022-08-19T23:15:47.489Z,2
2022-08-19T23:25:50.933Z,0
2022-08-19T23:35:54.206Z,2
2022-08-19T23:45:57.745Z,3
2022-08-19T23:56:00.967Z,0
